Time;durP1;ratioP1;P1;durP2;ratioP2;P2;SDS_P1;SDS_P2;PMS_P1;PMS_P2;Temp;Humidity;BMP_temperature;BMP_pressure;BME280_temperature;BME280_humidity;BME280_pressure;Samples;Min_cycle;Max_cycle;Signal;HPM_P1;HPM_P2
2022/01/22 00:01:23;;;;;;;14.15;4.68;;;;;;;4.18;65.09;101421.72;10453121;28;20063;-69
2022/01/22 00:06:25;;;;;;;16.20;5.28;;;;;;;4.22;65.18;101418.22;10449317;28;20045;-69
2022/01/22 00:11:34;;;;;;;12.15;5.10;;;;;;;4.15;65.32;101406.22;10470056;28;20536;-69
2022/01/22 00:16:36;;;;;;;13.60;4.50;;;;;;;4.04;65.13;101414.09;10470349;28;20389;-69
2022/01/22 00:21:38;;;;;;;10.20;4.53;;;;;;;4.05;65.34;101413.22;10469144;28;20071;-69
2022/01/22 00:26:41;;;;;;;15.32;5.38;;;;;;;4.05;65.03;101405.44;10467890;28;20056;-69
2022/01/22 00:31:44;;;;;;;11.38;4.90;;;;;;;4.04;65.21;101400.28;10469398;28;20198;-69
2022/01/22 00:36:46;;;;;;;11.68;5.20;;;;;;;3.97;65.35;101403.78;10469759;28;20052;-69
2022/01/22 00:41:47;;;;;;;13.30;5.60;;;;;;;3.94;65.14;101390.91;10467530;28;20103;-69
2022/01/22 00:46:49;;;;;;;11.45;5.50;;;;;;;3.88;65.40;101409.06;10467557;28;20051;-69
2022/01/22 00:51:51;;;;;;;14.73;5.50;;;;;;;3.89;65.22;101411.66;10465219;28;20067;-68
2022/01/22 00:56:53;;;;;;;12.95;5.55;;;;;;;3.97;65.27;101415.03;10468176;28;20049;-68
2022/01/22 01:01:55;;;;;;;10.63;5.70;;;;;;;3.95;65.18;101413.31;10464227;28;20561;-69
2022/01/22 01:06:57;;;;;;;11.98;5.88;;;;;;;3.94;65.37;101406.44;10466593;28;20528;-69
2022/01/22 01:12:03;;;;;;;11.30;5.80;;;;;;;3.88;65.30;101410.78;10467799;28;20456;-68
2022/01/22 01:17:29;;;;;;;10.90;5.30;;;;;;;3.82;65.20;101413.38;10466937;28;20167;-69
2022/01/22 01:33:21;;;;;;;10.90;5.07;;;;;;;3.80;65.46;101419.47;10465942;28;20048;-68
2022/01/22 01:38:24;;;;;;;9.02;4.63;;;;;;;3.88;65.55;101418.53;10467688;28;20143;-69
2022/01/22 01:43:32;;;;;;;8.57;4.63;;;;;;;3.90;65.43;101425.44;10449640;28;20045;-69
2022/01/22 01:48:38;;;;;;;8.48;4.63;;;;;;;3.91;65.15;101417.66;10467778;28;20503;-69
2022/01/22 01:58:44;;;;;;;10.05;4.97;;;;;;;3.95;65.30;101410.72;10466747;28;20051;-69
2022/01/22 02:03:46;;;;;;;8.95;4.38;;;;;;;3.95;65.31;101414.16;10424444;28;20144;-69
2022/01/22 02:08:48;;;;;;;7.18;4.43;;;;;;;3.91;65.30;101401.25;10422628;28;20057;-69
2022/01/22 02:24:24;;;;;;;8.32;3.83;;;;;;;3.84;65.83;101401.31;10421784;28;20056;-69
2022/01/22 02:29:25;;;;;;;7.10;3.45;;;;;;;3.91;65.75;101406.44;10425210;28;20456;-69
2022/01/22 02:34:39;;;;;;;7.15;3.53;;;;;;;3.98;65.44;101393.44;10425178;28;20069;-69
2022/01/22 02:39:47;;;;;;;9.20;3.45;;;;;;;3.93;65.69;101389.16;10425770;28;20573;-69
2022/01/22 02:44:48;;;;;;;5.28;3.15;;;;;;;3.98;65.58;101380.50;10422389;28;20680;-69
2022/01/22 02:49:51;;;;;;;6.97;3.03;;;;;;;3.91;65.76;101367.63;10424953;28;20473;-69
2022/01/22 02:54:53;;;;;;;8.45;3.40;;;;;;;3.89;65.89;101372.81;10424852;28;20100;-69
2022/01/22 02:59:55;;;;;;;6.28;3.15;;;;;;;3.93;65.79;101371.91;10431211;28;20135;-69
2022/01/22 03:04:57;;;;;;;5.22;3.17;;;;;;;3.90;65.98;101379.72;10472720;28;20140;-69
2022/01/22 03:10:02;;;;;;;5.63;3.10;;;;;;;3.77;66.25;101389.28;10472352;28;20058;-69
2022/01/22 03:30:36;;;;;;;6.10;3.40;;;;;;;3.96;66.01;101410.72;10473386;28;20127;-69
2022/01/22 03:35:44;;;;;;;6.68;3.80;;;;;;;4.04;65.84;101408.91;10455937;28;20060;-69
2022/01/22 03:40:49;;;;;;;6.47;3.38;;;;;;;4.06;66.05;101416.66;10474467;28;20135;-69
2022/01/22 03:45:51;;;;;;;7.03;3.65;;;;;;;4.05;65.82;101409.78;10472932;28;20420;-69
2022/01/22 03:50:53;;;;;;;6.53;3.72;;;;;;;4.13;65.71;101403.63;10473451;28;20455;-69
2022/01/22 03:56:06;;;;;;;8.60;4.40;;;;;;;3.94;66.21;101399.53;10456111;28;20543;-69
2022/01/22 04:11:39;;;;;;;5.22;3.53;;;;;;;4.04;66.21;101397.69;10466567;28;20062;-69
2022/01/22 04:16:55;;;;;;;6.70;4.30;;;;;;;4.07;66.33;101390.75;10467053;28;20128;-69
2022/01/22 04:27:23;;;;;;;7.47;4.70;;;;;;;3.95;66.67;101388.28;10474193;28;20076;-69
2022/01/22 04:32:27;;;;;;;10.20;5.45;;;;;;;4.00;66.73;101393.44;10472749;28;20560;-69
2022/01/22 04:37:29;;;;;;;8.15;5.50;;;;;;;4.00;66.76;101396.03;10473284;28;20055;-69
2022/01/22 04:42:33;;;;;;;8.25;5.75;;;;;;;4.06;66.70;101395.97;10473013;28;20056;-69
2022/01/22 04:54:57;;;;;;;7.70;5.30;;;;;;;3.89;67.47;101409.06;10472345;28;20075;-69
2022/01/22 04:58:05;;;;;;;10.35;5.72;;;;;;;3.99;67.13;101400.31;10472949;28;20066;-69
2022/01/22 05:03:08;;;;;;;7.75;5.50;;;;;;;3.88;67.68;101394.41;10454546;28;20144;-69
2022/01/22 05:08:09;;;;;;;9.32;5.85;;;;;;;3.88;67.58;101386.66;10471405;28;20427;-69
2022/01/22 05:13:11;;;;;;;8.88;6.57;;;;;;;3.89;67.52;101396.13;10472207;28;20063;-69
2022/01/22 05:18:13;;;;;;;10.20;6.60;;;;;;;3.84;67.98;101400.50;10471688;28;20056;-69
2022/01/22 05:23:20;;;;;;;11.02;7.65;;;;;;;3.84;68.08;101396.16;10454214;28;20110;-69
2022/01/22 05:38:52;;;;;;;11.07;9.20;;;;;;;3.76;68.69;101404.84;10471302;28;20072;-68
2022/01/22 05:43:54;;;;;;;13.30;9.55;;;;;;;3.79;68.67;101403.09;10471085;28;20522;-69
2022/01/22 05:48:56;;;;;;;10.02;8.57;;;;;;;3.93;68.17;101404.69;10436413;28;20053;-69
2022/01/22 06:04:26;;;;;;;13.68;9.18;;;;;;;3.82;68.64;101422.91;10469955;28;20102;-68
2022/01/22 06:09:28;;;;;;;11.23;9.15;;;;;;;3.83;68.98;101424.59;10470190;28;20151;-68
2022/01/22 06:14:30;;;;;;;14.20;9.13;;;;;;;3.94;68.52;101427.13;10469879;28;20067;-68
2022/01/22 06:19:31;;;;;;;12.48;9.10;;;;;;;3.90;68.94;101426.31;10469548;28;20756;-68
2022/01/22 06:24:33;;;;;;;12.73;10.68;;;;;;;3.81;69.19;101436.69;10469384;28;20106;-68
2022/01/22 06:29:35;;;;;;;12.88;10.70;;;;;;;3.83;69.28;101434.94;10451664;28;20171;-68
2022/01/22 06:34:37;;;;;;;12.80;9.73;;;;;;;3.74;69.70;101443.66;10468900;28;20071;-68
2022/01/22 06:41:44;;;;;;;17.67;10.57;;;;;;;3.70;69.69;101438.53;10451209;28;20639;-68
2022/01/22 06:45:05;;;;;;;12.82;10.38;;;;;;;3.66;70.29;101436.84;10467989;28;20057;-68
2022/01/22 06:50:08;;;;;;;14.70;12.02;;;;;;;3.63;70.28;101448.06;10468125;28;20131;-68
2022/01/22 06:55:12;;;;;;;14.45;10.65;;;;;;;3.61;70.48;101454.09;10467961;28;20135;-68
2022/01/22 07:00:14;;;;;;;13.93;10.68;;;;;;;3.62;70.37;101461.84;10468430;28;20052;-68
2022/01/22 07:05:15;;;;;;;12.63;9.77;;;;;;;3.71;70.49;101458.34;10467672;28;20131;-69
2022/01/22 07:10:17;;;;;;;13.85;12.10;;;;;;;3.71;70.36;101471.28;10468044;28;20048;-68
2022/01/22 07:15:20;;;;;;;13.88;10.63;;;;;;;3.81;70.32;101471.22;10468200;28;20159;-68
2022/01/22 07:20:28;;;;;;;11.45;9.70;;;;;;;3.86;70.00;101466.88;10467207;28;20544;-68
2022/01/22 07:25:30;;;;;;;11.90;10.05;;;;;;;3.88;70.11;101462.53;10465157;28;20504;-68
2022/01/22 07:30:32;;;;;;;12.20;10.20;;;;;;;3.90;70.00;101462.56;10449890;28;20167;-68
2022/01/22 07:35:34;;;;;;;11.77;10.55;;;;;;;3.98;70.01;101468.50;10467169;28;20055;-68
2022/01/22 07:40:36;;;;;;;12.63;11.07;;;;;;;4.04;69.66;101465.88;10467250;28;20110;-68
2022/01/22 07:45:38;;;;;;;12.52;11.23;;;;;;;4.05;69.62;101477.94;10467716;28;20167;-68
2022/01/22 07:50:40;;;;;;;11.63;10.43;;;;;;;4.20;69.33;101476.94;10467247;28;20079;-68
2022/01/22 07:55:41;;;;;;;12.30;10.63;;;;;;;4.29;69.16;101484.63;10467088;28;20147;-68
2022/01/22 08:00:43;;;;;;;11.07;9.75;;;;;;;4.38;68.96;101484.53;10473646;28;20056;-68
2022/01/22 08:05:45;;;;;;;12.70;11.18;;;;;;;4.47;68.68;101500.00;10474528;28;20141;-68
2022/01/22 08:10:47;;;;;;;15.25;13.57;;;;;;;4.43;68.72;101504.31;10474976;28;20087;-68
2022/01/22 08:15:49;;;;;;;16.58;12.77;;;;;;;4.51;68.58;101509.44;10474184;28;20139;-68
2022/01/22 08:20:51;;;;;;;13.32;11.93;;;;;;;4.67;68.14;101504.09;10456405;28;20060;-68
2022/01/22 08:25:53;;;;;;;13.15;10.57;;;;;;;4.72;67.88;101515.25;10473413;28;20604;-68
2022/01/22 08:31:03;;;;;;;11.75;10.20;;;;;;;4.69;67.97;101514.44;10456543;28;20088;-68
2022/01/22 08:36:05;;;;;;;12.88;10.43;;;;;;;4.67;68.08;101517.06;10455952;28;20155;-68
2022/01/22 08:41:07;;;;;;;11.48;10.18;;;;;;;4.72;68.09;101519.56;10472909;28;20052;-68
2022/01/22 08:46:08;;;;;;;12.90;11.02;;;;;;;4.75;67.90;101532.53;10473209;28;20135;-68
2022/01/22 08:51:12;;;;;;;13.15;11.13;;;;;;;4.79;68.06;101533.34;10469791;28;20079;-69
2022/01/22 08:56:21;;;;;;;13.45;10.80;;;;;;;5.00;67.61;101526.19;10455854;28;20055;-68
2022/01/22 09:01:24;;;;;;;14.15;11.00;;;;;;;5.10;67.42;101529.53;10471693;28;20061;-69
2022/01/22 09:06:27;;;;;;;12.77;10.82;;;;;;;5.24;66.99;101527.63;10470707;28;20102;-68
2022/01/22 09:11:28;;;;;;;13.88;10.35;;;;;;;4.97;67.44;101521.03;10470423;28;20849;-68
2022/01/22 09:16:31;;;;;;;13.48;10.38;;;;;;;5.17;67.23;101520.78;10470861;28;20412;-68
2022/01/22 09:21:34;;;;;;;14.77;10.98;;;;;;;5.29;66.80;101531.00;10470498;28;20056;-67
2022/01/22 09:26:36;;;;;;;12.98;10.32;;;;;;;5.49;66.55;101529.84;10470659;28;20052;-65
2022/01/22 09:31:38;;;;;;;11.82;9.45;;;;;;;5.46;66.45;101542.03;10471442;28;20055;-66
2022/01/22 09:36:40;;;;;;;13.75;10.23;;;;;;;5.59;66.23;101553.09;10469578;28;20052;-66
2022/01/22 09:41:42;;;;;;;13.90;10.40;;;;;;;5.71;66.01;101545.16;10470690;28;20102;-66
2022/01/22 09:47:04;;;;;;;12.63;9.98;;;;;;;5.90;65.57;101544.00;10470662;28;20065;-66
2022/01/22 09:52:06;;;;;;;11.88;10.07;;;;;;;5.68;65.60;101548.63;10470015;28;20048;-66
2022/01/22 09:57:09;;;;;;;13.43;9.75;;;;;;;5.72;65.77;101545.13;10470216;28;20064;-66
2022/01/22 10:02:16;;;;;;;12.63;10.52;;;;;;;5.91;65.36;101532.72;10469882;28;20306;-66
2022/01/22 10:07:23;;;;;;;14.25;11.68;;;;;;;5.83;65.52;101538.03;10469501;28;20606;-66
2022/01/22 10:12:27;;;;;;;15.35;11.30;;;;;;;5.65;65.80;101538.31;10469495;28;20147;-66
2022/01/22 10:17:51;;;;;;;13.25;11.23;;;;;;;5.54;65.75;101550.56;10450982;28;20147;-66
2022/01/22 10:22:58;;;;;;;15.25;11.00;;;;;;;5.47;66.10;101552.38;10468529;28;20091;-66
2022/01/22 10:28:05;;;;;;;16.33;12.23;;;;;;;5.58;66.14;101536.66;10468420;28;20048;-66
2022/01/22 10:33:26;;;;;;;15.45;10.48;;;;;;;5.90;65.38;101531.03;10468744;28;20098;-65
2022/01/22 10:38:38;;;;;;;15.90;10.63;;;;;;;6.12;64.54;101535.84;10468769;28;20059;-66
2022/01/22 10:43:53;;;;;;;14.48;11.73;;;;;;;6.01;64.97;101553.34;10467813;28;20415;-66
2022/01/22 10:48:55;;;;;;;11.68;10.02;;;;;;;6.31;65.19;101558.06;10467085;28;20052;-66
2022/01/22 10:54:00;;;;;;;9.77;8.60;;;;;;;6.25;64.68;101552.97;10467160;28;20118;-66
2022/01/22 10:59:05;;;;;;;10.55;8.65;;;;;;;6.19;64.87;101550.44;10468484;28;20131;-67
2022/01/22 11:04:09;;;;;;;11.10;8.93;;;;;;;6.14;65.14;101549.66;10468511;28;20072;-66
2022/01/22 11:09:11;;;;;;;8.80;7.88;;;;;;;6.19;64.92;101553.06;10468213;28;20063;-66
2022/01/22 11:14:13;;;;;;;11.40;8.18;;;;;;;6.07;65.15;101552.38;10468350;28;20064;-66
2022/01/22 11:19:22;;;;;;;7.70;6.90;;;;;;;6.08;65.01;101557.53;10468432;28;20080;-66
2022/01/22 11:24:25;;;;;;;7.43;6.03;;;;;;;6.18;64.69;101556.53;10467557;28;20049;-66
2022/01/22 11:29:31;;;;;;;9.23;7.35;;;;;;;6.09;65.02;101558.41;10467461;28;20083;-66
2022/01/22 11:34:36;;;;;;;8.00;6.25;;;;;;;6.11;65.14;101556.63;10473371;28;20165;-66
2022/01/22 11:39:38;;;;;;;10.43;6.18;;;;;;;6.18;64.78;101559.13;10475614;28;20045;-66
2022/01/22 11:44:49;;;;;;;7.35;5.88;;;;;;;6.32;64.64;101556.34;10476609;28;20088;-66
2022/01/22 11:50:07;;;;;;;7.10;5.28;;;;;;;6.35;63.78;101558.88;10475928;28;20132;-66
2022/01/22 11:55:15;;;;;;;7.55;5.25;;;;;;;6.36;63.88;101560.59;10475579;28;20060;-66
2022/01/22 12:00:21;;;;;;;10.27;5.75;;;;;;;6.30;63.94;101553.78;10475003;28;20063;-66
2022/01/22 12:05:22;;;;;;;6.82;5.03;;;;;;;6.11;63.73;101565.31;10475015;28;20079;-66
2022/01/22 12:10:41;;;;;;;9.25;5.70;;;;;;;6.23;63.35;101567.69;10475094;28;20728;-66
2022/01/22 12:15:45;;;;;;;8.30;5.25;;;;;;;6.35;63.45;101559.75;10457243;28;20066;-66
2022/01/22 12:25:54;;;;;;;9.45;6.43;;;;;;;6.62;62.90;101561.00;10474092;28;20056;-67
2022/01/22 12:31:03;;;;;;;12.30;7.22;;;;;;;6.83;62.22;101549.38;10474522;28;20147;-66
2022/01/22 12:36:12;;;;;;;10.60;6.10;;;;;;;6.87;61.60;101554.50;10473801;28;20053;-66
2022/01/22 12:46:40;;;;;;;8.70;4.80;;;;;;;6.86;61.85;101542.34;10473424;28;20057;-66
2022/01/22 12:51:42;;;;;;;8.15;5.18;;;;;;;6.90;61.95;101558.75;10472777;28;20056;-66
2022/01/22 12:56:51;;;;;;;8.30;5.22;;;;;;;6.84;62.05;101569.28;10472411;28;20151;-67
2022/01/22 13:01:53;;;;;;;8.05;4.88;;;;;;;6.97;61.77;101560.38;10473212;28;20079;-66
2022/01/22 13:06:55;;;;;;;7.18;4.80;;;;;;;6.86;61.93;101547.56;10472811;28;20163;-67
2022/01/22 13:11:58;;;;;;;6.25;4.68;;;;;;;6.79;62.04;101548.56;10454470;28;20048;-66
2022/01/22 13:17:00;;;;;;;8.65;5.45;;;;;;;6.90;62.15;101537.94;10455002;28;20060;-66
2022/01/22 13:22:03;;;;;;;7.05;5.40;;;;;;;6.78;62.48;101543.38;10472463;28;20164;-66
2022/01/22 13:47:50;;;;;;;12.13;7.35;;;;;;;6.34;64.57;101528.59;10471251;28;20058;-67
2022/01/22 13:53:12;;;;;;;10.35;7.30;;;;;;;6.38;64.79;101537.19;10470647;28;20049;-66
2022/01/22 13:58:19;;;;;;;12.38;8.75;;;;;;;6.42;64.83;101542.31;10469328;28;20118;-67
2022/01/22 14:08:34;;;;;;;8.73;7.32;;;;;;;6.47;64.80;101532.66;10471208;28;20048;-66
2022/01/22 14:13:36;;;;;;;13.07;8.80;;;;;;;6.43;64.85;101532.78;10451939;28;20143;-67
2022/01/22 14:18:40;;;;;;;8.82;6.80;;;;;;;6.31;64.93;101529.50;10469790;28;20131;-67
2022/01/22 14:23:43;;;;;;;8.00;6.22;;;;;;;6.28;65.04;101531.28;10469555;28;20975;-67
2022/01/22 14:28:57;;;;;;;6.32;5.30;;;;;;;6.03;65.19;101551.56;10468878;28;20052;-66
2022/01/22 14:34:03;;;;;;;21.90;15.35;;;;;;;6.19;64.93;101544.38;10468622;28;20072;-66
2022/01/22 14:44:32;;;;;;;13.10;9.10;;;;;;;6.00;64.56;101553.38;10468757;28;20606;-67
2022/01/22 14:49:40;;;;;;;11.10;6.10;;;;;;;6.01;64.34;101553.34;10450970;28;20070;-66
2022/01/22 14:54:44;;;;;;;12.70;8.63;;;;;;;5.94;64.42;101558.66;10468757;28;20062;-66
2022/01/22 14:59:46;;;;;;;8.52;6.35;;;;;;;6.01;64.41;101547.28;10466763;28;20463;-66
2022/01/22 15:04:48;;;;;;;9.73;7.78;;;;;;;5.98;64.60;101552.53;10469089;28;20135;-66
2022/01/22 15:09:50;;;;;;;10.45;7.80;;;;;;;5.98;64.53;101548.19;10450535;28;20060;-66
2022/01/22 15:14:53;;;;;;;10.15;7.60;;;;;;;6.06;64.77;101556.72;10467664;28;20091;-66
2022/01/22 15:19:55;;;;;;;9.07;7.63;;;;;;;6.10;64.67;101562.75;10468549;28;20106;-66
2022/01/22 15:24:58;;;;;;;10.30;7.97;;;;;;;6.09;64.64;101561.00;10468261;28;20056;-66
2022/01/22 15:30:22;;;;;;;14.30;10.18;;;;;;;5.97;65.04;101561.19;10467296;28;20142;-66
2022/01/22 15:35:29;;;;;;;10.55;7.90;;;;;;;5.88;65.26;101566.53;10467631;28;20631;-66
2022/01/22 15:40:33;;;;;;;14.73;11.18;;;;;;;5.77;65.49;101569.28;10467833;28;20053;-66
2022/01/22 15:45:36;;;;;;;17.85;10.75;;;;;;;5.65;65.47;101566.88;10466676;28;20139;-66
2022/01/22 15:50:39;;;;;;;10.02;7.60;;;;;;;5.75;65.32;101567.59;10468182;28;20052;-66
2022/01/22 15:55:49;;;;;;;12.65;8.45;;;;;;;5.74;65.18;101564.13;10467984;28;20052;-66
2022/01/22 16:00:50;;;;;;;12.65;8.10;;;;;;;5.68;65.27;101569.41;10466627;28;20153;-66
2022/01/22 16:05:57;;;;;;;9.35;7.18;;;;;;;5.73;65.24;101570.22;10467511;28;20152;-66
2022/01/22 16:10:59;;;;;;;10.25;7.13;;;;;;;5.84;64.93;101576.09;10467522;28;20143;-66
2022/01/22 16:16:03;;;;;;;14.57;9.60;;;;;;;5.92;64.97;101583.78;10466236;28;20061;-66
2022/01/22 16:21:05;;;;;;;14.55;9.82;;;;;;;5.91;64.91;101575.13;10472372;28;20141;-66
2022/01/22 16:26:07;;;;;;;24.50;15.48;;;;;;;5.94;65.21;101582.03;10474075;28;20114;-66
2022/01/22 16:31:08;;;;;;;28.38;16.52;;;;;;;5.90;65.19;101588.97;10474093;28;20143;-66
2022/01/22 16:36:10;;;;;;;16.77;11.30;;;;;;;5.85;65.33;101588.22;10474041;28;20420;-66
2022/01/22 16:41:13;;;;;;;14.40;9.40;;;;;;;5.80;65.35;101591.75;10473956;28;20060;-66
2022/01/22 16:46:34;;;;;;;12.45;10.13;;;;;;;5.90;65.18;101595.94;10473610;28;20063;-67
2022/01/22 17:01:46;;;;;;;15.43;11.70;;;;;;;5.82;65.27;101593.44;10472393;28;20804;-66
2022/01/22 17:06:50;;;;;;;15.18;12.43;;;;;;;5.82;65.34;101595.19;10455549;28;20045;-66
2022/01/22 17:17:13;;;;;;;16.13;12.88;;;;;;;5.87;65.37;101599.44;10472050;28;20058;-66
2022/01/22 17:22:15;;;;;;;33.58;28.58;;;;;;;5.92;65.17;101599.38;10472940;28;20056;-67
2022/01/22 17:27:21;;;;;;;20.00;14.85;;;;;;;5.91;65.46;101610.63;10472044;28;20139;-67
2022/01/22 17:32:23;;;;;;;17.33;13.30;;;;;;;5.87;65.52;101615.00;10470125;28;20057;-66
2022/01/22 17:37:25;;;;;;;16.70;13.02;;;;;;;5.91;65.58;101606.28;10471782;28;20144;-67
2022/01/22 17:42:31;;;;;;;19.65;13.90;;;;;;;6.03;65.37;101607.84;10471884;28;20114;-67
2022/01/22 17:47:33;;;;;;;20.38;15.48;;;;;;;6.06;65.41;101619.03;10466141;28;20062;-66
2022/01/22 17:52:34;;;;;;;22.63;15.63;;;;;;;6.08;65.29;101621.63;10465335;28;20056;-66
2022/01/22 17:57:36;;;;;;;21.63;14.80;;;;;;;6.00;65.41;101621.72;10468683;28;20056;-66
2022/01/22 18:02:38;;;;;;;25.33;17.95;;;;;;;6.07;65.31;101612.13;10466785;28;20058;-66
2022/01/22 18:07:40;;;;;;;24.00;17.75;;;;;;;6.07;65.26;101627.69;10467745;28;20154;-66
2022/01/22 18:12:42;;;;;;;28.42;19.63;;;;;;;6.05;65.51;101619.94;10469415;28;20139;-66
2022/01/22 18:17:44;;;;;;;25.77;17.92;;;;;;;5.99;65.61;101627.81;10468258;28;20052;-66
2022/01/22 18:22:45;;;;;;;25.30;18.42;;;;;;;5.98;65.73;101638.22;10451024;28;20056;-66
2022/01/22 18:27:48;;;;;;;24.98;18.25;;;;;;;5.96;66.19;101635.63;10468685;28;20060;-65
2022/01/22 18:32:49;;;;;;;26.20;18.48;;;;;;;5.92;66.15;101641.75;10468290;28;20084;-65
2022/01/22 18:37:51;;;;;;;22.65;17.27;;;;;;;5.80;66.28;101636.72;10467639;28;20067;-66
2022/01/22 18:42:55;;;;;;;22.85;17.98;;;;;;;5.79;66.25;101636.75;10468011;28;20556;-66
2022/01/22 18:48:00;;;;;;;23.17;16.50;;;;;;;5.78;66.01;101641.09;10467555;28;20056;-66
2022/01/22 18:53:02;;;;;;;23.08;17.13;;;;;;;5.82;66.00;101660.09;10467882;28;20052;-67
2022/01/22 18:58:03;;;;;;;22.85;16.20;;;;;;;5.80;65.68;101662.69;10467775;28;20143;-66
2022/01/22 19:03:05;;;;;;;17.10;14.55;;;;;;;5.80;65.38;101657.50;10467608;28;20567;-66
2022/01/22 19:08:07;;;;;;;15.77;12.05;;;;;;;5.78;65.04;101658.41;10449643;28;20397;-66
2022/01/22 19:13:09;;;;;;;15.38;10.00;;;;;;;5.75;64.28;101663.63;10463459;28;20131;-66
2022/01/22 19:18:11;;;;;;;14.57;10.35;;;;;;;5.84;63.96;101653.97;10466413;28;20545;-66
2022/01/22 19:28:17;;;;;;;18.52;13.38;;;;;;;5.87;63.80;101638.38;10467624;28;20057;-66
2022/01/22 19:33:19;;;;;;;15.93;11.80;;;;;;;5.89;63.56;101640.94;10464719;28;20215;-66
2022/01/22 19:38:24;;;;;;;15.10;11.98;;;;;;;5.87;63.59;101643.56;10465851;28;20126;-66
2022/01/22 19:43:29;;;;;;;16.70;12.48;;;;;;;5.81;63.88;101647.97;10465660;28;20114;-66
2022/01/22 19:48:30;;;;;;;16.75;13.07;;;;;;;5.80;64.00;101649.72;10449515;28;20052;-66
2022/01/22 19:53:33;;;;;;;19.27;14.10;;;;;;;5.75;64.29;101635.06;10450315;28;20060;-66
2022/01/22 19:58:35;;;;;;;17.95;13.88;;;;;;;5.69;64.51;101646.41;10474806;28;20063;-66
2022/01/22 20:03:37;;;;;;;19.95;14.60;;;;;;;5.62;64.90;101657.72;10429332;28;20092;-66
2022/01/22 20:08:39;;;;;;;19.73;14.20;;;;;;;5.55;64.94;101650.91;10433505;28;20592;-66
2022/01/22 20:13:41;;;;;;;22.05;15.65;;;;;;;5.58;65.06;101645.66;10431267;28;20539;-66
2022/01/22 20:18:43;;;;;;;21.73;14.68;;;;;;;5.68;64.83;101636.88;10432006;28;20088;-66
2022/01/22 20:24:02;;;;;;;20.45;15.48;;;;;;;5.74;64.67;101631.63;10431854;28;20060;-66
2022/01/22 20:29:06;;;;;;;22.92;16.10;;;;;;;5.85;64.59;101624.56;10432810;28;20964;-66
2022/01/22 20:34:08;;;;;;;23.88;17.20;;;;;;;5.76;64.60;101623.84;10431055;28;20136;-66
2022/01/22 20:39:10;;;;;;;26.77;17.60;;;;;;;5.76;64.73;101623.84;10431802;28;20049;-66
2022/01/22 20:44:12;;;;;;;25.50;16.73;;;;;;;5.78;64.69;101628.09;10431254;28;20067;-66
2022/01/22 20:49:14;;;;;;;22.42;16.05;;;;;;;5.66;64.86;101623.06;10430022;28;20063;-66
2022/01/22 20:54:16;;;;;;;21.90;15.90;;;;;;;5.68;65.06;101628.22;10430394;28;20387;-66
2022/01/22 20:59:18;;;;;;;22.23;15.30;;;;;;;5.67;65.18;101623.94;10431586;28;20193;-66
2022/01/22 21:04:21;;;;;;;20.40;13.95;;;;;;;5.64;65.06;101623.97;10452912;28;20318;-66
2022/01/22 21:09:23;;;;;;;22.33;15.32;;;;;;;5.53;65.46;101626.72;10467058;28;20060;-66
2022/01/22 21:14:26;;;;;;;24.58;16.00;;;;;;;5.59;65.44;101620.59;10470759;28;20552;-66
2022/01/22 21:19:29;;;;;;;20.17;14.73;;;;;;;5.54;65.69;101628.41;10470917;28;20473;-66
2022/01/22 21:24:32;;;;;;;20.85;15.68;;;;;;;5.46;66.17;101627.66;10470037;28;20114;-67
2022/01/22 21:29:33;;;;;;;22.55;16.55;;;;;;;5.43;66.57;101638.09;10471173;28;20501;-66
2022/01/22 21:34:37;;;;;;;25.42;17.95;;;;;;;5.35;66.97;101629.53;10469740;28;20048;-66
2022/01/22 21:39:42;;;;;;;27.30;18.95;;;;;;;5.33;67.12;101639.06;10470834;28;20130;-66
2022/01/22 21:44:45;;;;;;;23.60;17.95;;;;;;;5.22;67.39;101643.50;10469629;28;20588;-66
2022/01/22 21:49:47;;;;;;;26.88;19.42;;;;;;;5.31;67.52;101649.44;10466466;28;20048;-66
2022/01/22 21:54:50;;;;;;;26.85;19.65;;;;;;;5.30;67.54;101641.69;10468822;28;20057;-66
2022/01/22 21:59:52;;;;;;;27.02;19.73;;;;;;;5.23;67.68;101635.69;10469915;28;20425;-66
2022/01/22 22:04:55;;;;;;;29.10;21.35;;;;;;;5.29;67.50;101647.72;10468557;28;20548;-66
2022/01/22 22:09:57;;;;;;;28.23;20.48;;;;;;;5.31;67.43;101652.03;10466897;28;20428;-66
2022/01/22 22:14:59;;;;;;;28.63;20.33;;;;;;;5.27;67.67;101647.75;10468677;28;20060;-66
2022/01/22 22:20:01;;;;;;;30.35;21.23;;;;;;;5.27;67.72;101644.28;10450407;28;20575;-66
2022/01/22 22:25:05;;;;;;;37.42;25.70;;;;;;;5.31;67.30;101638.22;10450010;28;20056;-66
2022/01/22 22:30:09;;;;;;;36.65;26.60;;;;;;;5.43;67.00;101643.28;10468482;28;20901;-66
2022/01/22 22:35:10;;;;;;;41.20;26.75;;;;;;;5.50;66.79;101642.31;10469027;28;20164;-66
2022/01/22 22:40:15;;;;;;;38.20;27.52;;;;;;;5.51;66.55;101642.28;10451494;28;20507;-66
2022/01/22 22:45:19;;;;;;;40.45;27.30;;;;;;;5.48;66.47;101644.06;10465953;28;20175;-67
2022/01/22 22:50:22;;;;;;;41.95;28.95;;;;;;;5.54;66.22;101649.19;10463211;28;20048;-66
2022/01/22 22:55:24;;;;;;;42.95;27.98;;;;;;;5.47;66.47;101638.00;10468056;28;20662;-68
2022/01/22 23:00:43;;;;;;;39.95;27.30;;;;;;;5.34;67.12;101651.16;10468120;28;20084;-68
2022/01/22 23:05:46;;;;;;;41.97;28.00;;;;;;;5.45;66.84;101650.13;10465952;28;20117;-68
2022/01/22 23:10:49;;;;;;;38.75;27.67;;;;;;;5.49;66.70;101648.38;10466288;28;21151;-67
2022/01/22 23:15:55;;;;;;;44.75;30.52;;;;;;;5.54;66.53;101654.38;10449231;28;20063;-67
2022/01/22 23:21:26;;;;;;;44.08;30.90;;;;;;;5.52;66.61;101650.94;10466278;28;20048;-67
2022/01/22 23:26:28;;;;;;;51.72;31.90;;;;;;;5.59;66.25;101652.59;10467057;28;20076;-67
2022/01/22 23:31:35;;;;;;;46.13;31.65;;;;;;;5.48;66.09;101651.84;10473726;28;20223;-67
